Pageton, West Virginia
Current Conditions -  °F | °C
As of 2:11 AM on Saturday 01 Nov 2014 (Local Time) from KBLF Reporting Station
Light Snow Light Snow  
Wind Chill: 27°   Ceiling: 300
Heat Index: 34°   Visibility: 3mi
Dew Point: 31°   Wind: 9mph
Humidity: 89%   Direction: 270°W
Pressure: 29.79"   Gusts: NA
Location:  37.35°N, 81.47°W
Report Text: KBLF 010611Z AUTO 27008KT 3SM -SN BR BKN003 OVC009 01/M01 A2979 RMK AO2 P0001 T00111006
Loading
Personal Weather Stations






























Interactive Weather Map
Tropical Storm Tracking
New forecast layout! Learn more

10-Day Weather Forecast

Advertisements
Track Severe Weather on mobile